createdAt,value
2023-04-02T00:08:40.722Z,97002.97
2023-04-02T00:20:02.964Z,97013.03
2023-04-02T00:26:25.824Z,97005.28
2023-04-02T00:29:52.747Z,96999.25
2023-04-02T01:01:25.458Z,97014.78
2023-04-02T01:14:44.920Z,97021.47
2023-04-02T01:32:24.376Z,97026.28
2023-04-02T03:25:58.753Z,97066.03
2023-04-02T03:32:05.806Z,97073.22
2023-04-02T04:23:54.395Z,97089.66
2023-04-02T04:30:14.061Z,97090.69
2023-04-02T05:26:09.042Z,97124.72
2023-04-02T05:33:41.277Z,97127.69
2023-04-02T07:06:30.970Z,97190.25
2023-04-02T07:09:36.250Z,97201.09
2023-04-02T07:12:46.496Z,97199.19
2023-04-02T07:15:50.556Z,97203.53
2023-04-02T07:18:55.138Z,97202.94
2023-04-02T07:21:59.138Z,97197.69
2023-04-02T07:25:06.330Z,97204.56
2023-04-02T07:28:10.669Z,97203.50
2023-04-02T07:31:15.597Z,97213.56
2023-04-02T07:37:41.943Z,97220.97
2023-04-02T07:40:46.289Z,97223.25
2023-04-02T07:43:50.285Z,97227.16
2023-04-02T07:47:05.031Z,97228.03
2023-04-02T07:50:24.681Z,97236.22
2023-04-02T07:53:33.503Z,97235.25
2023-04-02T07:59:55.669Z,97233.53
2023-04-02T08:03:05.643Z,97245.31
2023-04-02T08:06:11.171Z,97251.09
2023-04-02T08:09:15.224Z,97249.16
2023-04-02T08:12:19.047Z,97250.19
2023-04-02T08:15:23.128Z,97256.69
2023-04-02T08:18:27.092Z,97260.09
2023-04-02T08:21:35.160Z,97252.91
2023-04-02T08:24:39.000Z,97261.63
2023-04-02T08:27:42.914Z,97255.13
2023-04-02T08:30:47.082Z,97252.66
2023-04-02T08:33:51.110Z,97260.72
2023-04-02T08:36:56.365Z,97257.66
2023-04-02T08:40:00.434Z,97254.16
2023-04-02T08:43:06.291Z,97256.38
2023-04-02T08:46:11.740Z,97255.78
2023-04-02T08:49:15.788Z,97261.47
2023-04-02T08:52:21.030Z,97264.59
2023-04-02T08:55:26.244Z,97268.88
2023-04-02T08:58:32.944Z,97274.31
2023-04-02T09:01:41.318Z,97273.47
2023-04-02T09:04:45.690Z,97281.16
2023-04-02T09:11:09.388Z,97284.19
2023-04-02T09:14:13.786Z,97278.78
2023-04-02T09:17:18.932Z,97291.63
2023-04-02T09:20:25.251Z,97291.69
2023-04-02T09:23:32.240Z,97298.22
2023-04-02T09:26:36.207Z,97298.63
2023-04-02T09:29:40.484Z,97295.66
2023-04-02T09:32:44.597Z,97296.47
2023-04-02T09:35:51.326Z,97295.91
2023-04-02T09:38:55.365Z,97300.13
2023-04-02T09:42:05.421Z,97304.09
2023-04-02T09:45:09.931Z,97311.19
2023-04-02T09:48:13.778Z,97297.53
2023-04-02T09:51:17.889Z,97317.16
2023-04-02T09:54:21.785Z,97320.03
2023-04-02T09:57:26.031Z,97322.56
2023-04-02T10:00:32.536Z,97317.50
2023-04-02T10:03:47.474Z,97326.69
2023-04-02T10:06:53.227Z,97329.31
2023-04-02T10:09:58.871Z,97334.16
2023-04-02T10:13:04.447Z,97342.69
2023-04-02T10:16:26.949Z,97339.81
2023-04-02T10:19:32.438Z,97334.34
2023-04-02T10:22:36.624Z,97338.94
2023-04-02T10:25:40.453Z,97343.25
2023-04-02T10:28:45.646Z,97348.81
2023-04-02T10:31:49.895Z,97345.44
2023-04-02T10:34:53.964Z,97348.41
2023-04-02T10:37:57.600Z,97352.66
2023-04-02T10:41:01.349Z,97352.38
2023-04-02T10:44:17.079Z,97355.66
2023-04-02T10:47:27.745Z,97353.63
2023-04-02T10:50:31.767Z,97358.06
2023-04-02T10:53:35.912Z,97356.06
2023-04-02T10:56:50.777Z,97358.66
2023-04-02T10:59:55.656Z,97362.03
2023-04-02T11:03:00.776Z,97365.50
2023-04-02T11:06:04.800Z,97365.03
2023-04-02T11:09:12.453Z,97358.09
2023-04-02T11:12:19.702Z,97372.09
2023-04-02T11:15:24.787Z,97364.38
2023-04-02T11:18:30.480Z,97371.38
2023-04-02T11:21:47.672Z,97367.06
2023-04-02T11:24:59.131Z,97372.34
2023-04-02T11:28:07.648Z,97368.59
2023-04-02T11:31:17.192Z,97386.97
2023-04-02T11:34:25.824Z,97380.44
2023-04-02T11:37:39.087Z,97380.91
2023-04-02T11:40:54.830Z,97384.09
2023-04-02T11:57:27.634Z,97399.22
2023-04-02T12:17:54.117Z,97410.56
2023-04-02T12:57:53.330Z,97416.88
2023-04-02T13:49:41.656Z,97425.28
2023-04-02T14:17:06.290Z,97425.91
2023-04-02T14:37:18.039Z,97440.69
2023-04-02T14:58:06.992Z,97450.13
2023-04-02T15:40:47.452Z,97461.47
2023-04-02T15:57:35.597Z,97460.34
2023-04-02T16:00:39.666Z,97455.25
2023-04-02T16:03:44.166Z,97464.38
2023-04-02T16:06:49.617Z,97462.56
2023-04-02T16:09:57.248Z,97465.22
2023-04-02T16:13:06.069Z,97464.09
2023-04-02T16:16:10.733Z,97470.63
2023-04-02T16:19:19.560Z,97475.56
2023-04-02T16:22:29.031Z,97476.50
2023-04-02T16:25:36.725Z,97473.63
2023-04-02T16:28:42.129Z,97482.97
2023-04-02T16:31:47.543Z,97486.78
2023-04-02T16:34:57.652Z,97487.47
2023-04-02T16:38:11.846Z,97494.81
2023-04-02T16:41:38.929Z,97497.34
2023-04-02T16:45:06.189Z,97503.84
2023-04-02T16:49:30.032Z,97507.41
2023-04-02T16:55:16.154Z,97513.69
2023-04-02T16:58:27.387Z,97517.34
2023-04-02T17:01:35.810Z,97520.56
2023-04-02T17:04:41.217Z,97522.34
2023-04-02T17:08:08.027Z,97523.59
2023-04-02T17:11:10.466Z,97532.22
2023-04-02T17:14:18.711Z,97529.38
2023-04-02T17:17:27.204Z,97534.56
2023-04-02T17:20:32.694Z,97536.44
2023-04-02T17:23:49.432Z,97546.88
2023-04-02T17:30:31.041Z,97547.75
2023-04-02T17:33:38.660Z,97544.56
2023-04-02T17:41:03.145Z,97551.66
2023-04-02T17:50:38.766Z,97561.19
2023-04-02T17:57:15.342Z,97571.59
2023-04-02T18:00:30.023Z,97576.19
2023-04-02T18:31:11.202Z,97590.50
2023-04-02T19:41:26.203Z,97662.53
2023-04-02T19:45:04.811Z,97667.41
2023-04-02T19:48:29.197Z,97673.75
2023-04-02T19:58:30.912Z,97682.47
2023-04-02T20:05:06.406Z,97683.06
2023-04-02T20:08:31.324Z,97684.69
2023-04-02T20:11:58.930Z,97687.25
2023-04-02T20:15:01.622Z,97696.47
2023-04-02T20:18:19.047Z,97695.16
2023-04-02T20:21:30.772Z,97697.34
2023-04-02T20:28:10.754Z,97697.94
2023-04-02T20:31:45.596Z,97689.00
2023-04-02T20:34:53.915Z,97695.56
2023-04-02T20:38:23.118Z,97692.63
2023-04-02T20:41:50.301Z,97700.34
2023-04-02T20:48:46.324Z,97704.13
2023-04-02T21:16:33.988Z,97710.25
2023-04-02T21:20:00.977Z,97712.56
2023-04-02T21:23:04.759Z,97710.97
2023-04-02T21:36:59.173Z,97719.13
2023-04-02T21:47:02.917Z,97719.72
2023-04-02T21:50:16.618Z,97721.91
2023-04-02T21:53:46.549Z,97717.41
2023-04-02T22:00:25.875Z,97724.50
2023-04-02T22:07:06.122Z,97709.19
2023-04-02T22:10:35.904Z,97713.72
2023-04-02T22:13:53.902Z,97714.75
2023-04-02T22:17:25.364Z,97706.63
2023-04-02T22:21:32.442Z,97709.91
2023-04-02T22:41:10.275Z,97701.28
2023-04-02T22:52:03.545Z,97702.75
2023-04-02T23:05:01.430Z,97699.19
2023-04-02T23:08:07.740Z,97699.16
2023-04-02T23:11:16.557Z,97701.41
2023-04-02T23:27:50.825Z,97693.44
2023-04-02T23:31:19.801Z,97695.22
2023-04-02T23:44:42.560Z,97689.13
2023-04-02T23:51:23.717Z,97691.88
2023-04-02T23:57:53.911Z,97682.31
